createdAt,value
2023-03-22T00:01:36.825Z,11.51
2023-03-22T00:04:05.348Z,11.41
2023-03-22T00:06:32.859Z,11.38
2023-03-22T00:09:00.900Z,11.39
2023-03-22T00:11:30.828Z,11.50
2023-03-22T00:13:59.004Z,11.45
2023-03-22T00:16:28.086Z,11.43
2023-03-22T00:18:56.872Z,11.33
2023-03-22T00:21:24.756Z,11.35
2023-03-22T00:23:52.735Z,11.28
2023-03-22T00:26:21.181Z,11.27
2023-03-22T00:28:49.130Z,11.21
2023-03-22T00:31:16.799Z,11.05
2023-03-22T00:33:44.801Z,11.08
2023-03-22T00:36:13.158Z,11.10
2023-03-22T00:38:43.412Z,10.97
2023-03-22T00:41:17.373Z,11.05
2023-03-22T00:43:46.873Z,11.01
2023-03-22T00:46:16.284Z,10.94
2023-03-22T00:48:44.399Z,10.96
2023-03-22T00:51:18.185Z,10.90
2023-03-22T00:53:49.622Z,10.75
2023-03-22T00:56:18.832Z,10.56
2023-03-22T00:58:48.234Z,10.65
2023-03-22T01:01:17.555Z,10.46
2023-03-22T01:03:45.511Z,10.51
2023-03-22T01:06:14.970Z,10.39
2023-03-22T01:08:42.590Z,10.41
2023-03-22T01:11:11.789Z,10.43
2023-03-22T01:13:42.017Z,10.32
2023-03-22T01:16:10.637Z,10.38
2023-03-22T01:18:39.322Z,10.34
2023-03-22T01:21:08.124Z,10.35
2023-03-22T01:23:36.329Z,10.34
2023-03-22T01:26:04.678Z,10.33
2023-03-22T01:28:32.948Z,10.24
2023-03-22T01:31:02.111Z,10.29
2023-03-22T01:33:32.036Z,10.30
2023-03-22T01:36:01.390Z,10.45
2023-03-22T01:38:32.851Z,10.36
2023-03-22T01:41:01.047Z,10.15
2023-03-22T01:43:29.152Z,10.11
2023-03-22T01:45:57.854Z,9.92
2023-03-22T01:48:38.072Z,9.86
2023-03-22T01:51:17.420Z,9.83
2023-03-22T01:53:51.624Z,9.83
2023-03-22T01:56:23.157Z,9.73
2023-03-22T01:58:54.107Z,9.56
2023-03-22T02:01:24.986Z,9.58
2023-03-22T02:04:08.429Z,9.55
2023-03-22T02:06:38.241Z,9.57
2023-03-22T02:09:11.446Z,9.54
2023-03-22T02:11:42.463Z,9.60
2023-03-22T02:15:08.155Z,9.50
2023-03-22T02:18:11.724Z,9.49
2023-03-22T02:21:13.161Z,9.46
2023-03-22T02:23:59.769Z,9.35
2023-03-22T02:26:51.159Z,9.63
2023-03-22T02:29:34.594Z,9.35
2023-03-22T02:32:41.263Z,9.41
2023-03-22T02:35:30.839Z,9.19
2023-03-22T02:38:04.938Z,9.14
2023-03-22T02:40:54.530Z,9.12
2023-03-22T02:43:41.646Z,9.10
2023-03-22T02:46:43.778Z,9.00
2023-03-22T02:49:56.260Z,8.95
2023-03-22T02:52:29.796Z,8.97
2023-03-22T02:55:08.561Z,8.88
2023-03-22T02:57:44.729Z,8.98
2023-03-22T03:00:14.982Z,8.89
2023-03-22T03:02:48.596Z,8.87
2023-03-22T03:05:18.767Z,8.86
2023-03-22T03:07:56.727Z,8.82
2023-03-22T03:10:27.161Z,8.93
2023-03-22T03:12:57.263Z,9.00
2023-03-22T03:15:26.027Z,9.14
2023-03-22T03:18:13.876Z,9.29
2023-03-22T03:20:46.816Z,9.33
2023-03-22T03:23:20.621Z,9.25
2023-03-22T03:26:04.879Z,9.32
2023-03-22T03:28:46.659Z,9.31
2023-03-22T03:31:24.062Z,9.77
2023-03-22T03:34:03.538Z,9.75
2023-03-22T03:36:34.847Z,9.66
2023-03-22T03:39:04.675Z,9.27
2023-03-22T03:41:36.265Z,9.05
2023-03-22T03:44:04.304Z,9.09
2023-03-22T03:46:31.984Z,9.06
2023-03-22T03:49:00.246Z,9.16
2023-03-22T03:51:28.330Z,9.26
2023-03-22T03:53:57.648Z,9.31
2023-03-22T03:56:28.864Z,9.41
2023-03-22T03:59:01.202Z,9.43
2023-03-22T04:01:30.861Z,9.34
2023-03-22T04:03:59.388Z,9.31
2023-03-22T04:06:34.764Z,9.32
2023-03-22T04:09:06.756Z,9.46
2023-03-22T04:11:35.012Z,9.68
2023-03-22T04:14:03.941Z,9.85
2023-03-22T04:16:31.883Z,10.00
2023-03-22T04:19:03.234Z,9.49
2023-03-22T04:21:31.748Z,9.57
2023-03-22T04:24:00.958Z,9.40
2023-03-22T04:26:30.189Z,9.48
2023-03-22T04:29:06.581Z,9.60
2023-03-22T04:31:39.163Z,9.57
2023-03-22T04:34:07.249Z,9.33
2023-03-22T04:36:39.728Z,9.44
2023-03-22T04:39:12.327Z,10.01
2023-03-22T04:41:41.017Z,9.60
2023-03-22T04:44:10.528Z,9.64
2023-03-22T04:46:44.077Z,9.63
2023-03-22T04:49:12.280Z,9.69
2023-03-22T04:51:40.145Z,9.86
2023-03-22T04:54:13.547Z,9.66
2023-03-22T04:56:43.893Z,9.48
2023-03-22T04:59:13.145Z,9.47
2023-03-22T05:01:43.208Z,9.97
2023-03-22T05:04:14.136Z,9.86
2023-03-22T05:06:46.688Z,9.64
2023-03-22T05:09:18.108Z,9.62
2023-03-22T05:11:46.139Z,9.56
2023-03-22T05:14:20.539Z,9.69
2023-03-22T05:16:50.757Z,9.68
2023-03-22T05:19:24.498Z,9.75
2023-03-22T05:21:57.994Z,9.85
2023-03-22T05:24:32.977Z,10.05
2023-03-22T05:27:06.354Z,9.82
2023-03-22T05:29:37.156Z,9.98
2023-03-22T05:32:06.673Z,9.94
2023-03-22T05:37:14.300Z,10.18
2023-03-22T05:39:52.355Z,10.15
2023-03-22T05:42:24.682Z,10.27
2023-03-22T05:45:03.073Z,10.45
2023-03-22T05:47:39.633Z,10.59
2023-03-22T05:50:14.023Z,11.00
2023-03-22T05:52:42.919Z,11.17
2023-03-22T05:55:18.674Z,11.41
2023-03-22T05:57:51.686Z,11.21
2023-03-22T06:00:28.912Z,10.87
2023-03-22T06:03:05.960Z,10.92
2023-03-22T06:05:40.515Z,11.24
2023-03-22T06:08:12.871Z,11.51
2023-03-22T06:13:22.746Z,11.68
2023-03-22T06:15:51.849Z,11.62
2023-03-22T06:18:20.878Z,11.47
2023-03-22T06:20:59.633Z,11.53
2023-03-22T06:23:30.373Z,11.70
2023-03-22T06:26:04.781Z,12.15
2023-03-22T06:28:36.050Z,12.11
2023-03-22T06:31:11.034Z,12.23
2023-03-22T06:33:41.015Z,12.30
2023-03-22T06:36:10.674Z,12.58
2023-03-22T06:38:40.497Z,12.73
2023-03-22T06:41:10.730Z,12.63
2023-03-22T06:43:42.964Z,12.52
2023-03-22T06:46:14.407Z,12.88
2023-03-22T06:48:46.912Z,13.24
2023-03-22T06:51:17.821Z,13.21
2023-03-22T06:53:49.968Z,13.02
2023-03-22T06:56:23.123Z,12.94
2023-03-22T06:58:52.730Z,12.98
2023-03-22T07:01:24.110Z,13.24
2023-03-22T07:03:59.159Z,13.67
2023-03-22T07:06:28.549Z,13.72
2023-03-22T07:09:06.240Z,13.42
2023-03-22T07:11:36.699Z,13.51
2023-03-22T07:14:09.832Z,13.52
2023-03-22T07:16:49.761Z,13.95
2023-03-22T07:19:20.896Z,14.36
2023-03-22T07:21:53.685Z,14.24
2023-03-22T07:24:26.688Z,14.12
2023-03-22T07:26:55.915Z,14.04
2023-03-22T07:29:25.723Z,14.17
2023-03-22T07:32:01.178Z,13.97
2023-03-22T07:39:45.071Z,14.32
2023-03-22T07:42:13.793Z,14.78
2023-03-22T07:44:50.668Z,14.79
2023-03-22T07:47:40.696Z,14.73
2023-03-22T07:52:55.830Z,14.93
2023-03-22T07:55:32.725Z,15.17
2023-03-22T07:58:05.670Z,14.96
2023-03-22T08:00:39.150Z,15.22
2023-03-22T08:03:14.111Z,15.03
2023-03-22T08:06:04.372Z,15.23
2023-03-22T08:08:33.873Z,15.22
2023-03-22T08:13:46.413Z,15.13
2023-03-22T08:16:22.691Z,15.32
2023-03-22T08:18:52.080Z,15.44
2023-03-22T08:21:21.701Z,15.41
2023-03-22T08:23:51.676Z,15.43
2023-03-22T08:26:23.411Z,15.39
2023-03-22T08:28:57.071Z,15.42
2023-03-22T08:31:27.733Z,15.69
2023-03-22T08:33:58.871Z,16.01
2023-03-22T08:36:27.628Z,15.81
2023-03-22T08:38:57.562Z,15.32
2023-03-22T08:41:28.071Z,15.81
2023-03-22T08:44:02.570Z,16.00
2023-03-22T08:46:36.342Z,16.24
2023-03-22T08:49:12.785Z,16.35
2023-03-22T08:51:44.934Z,16.13
2023-03-22T08:54:14.592Z,15.88
2023-03-22T08:56:50.447Z,15.85
2023-03-22T08:59:20.612Z,15.68
2023-03-22T09:01:52.326Z,15.78
2023-03-22T09:04:21.052Z,15.73
2023-03-22T09:06:55.614Z,15.69
2023-03-22T09:09:29.793Z,15.78
2023-03-22T09:12:04.318Z,15.72
2023-03-22T09:14:37.006Z,15.95
2023-03-22T09:17:06.164Z,15.85
2023-03-22T09:19:35.853Z,15.70
2023-03-22T09:22:07.699Z,15.97
2023-03-22T09:24:39.433Z,16.19
2023-03-22T09:27:09.493Z,16.15
2023-03-22T09:29:43.846Z,16.32
2023-03-22T09:32:13.416Z,16.25
2023-03-22T09:34:43.692Z,16.16
2023-03-22T09:37:24.672Z,16.24
2023-03-22T09:39:54.158Z,16.38
2023-03-22T09:42:32.474Z,16.48
2023-03-22T09:45:15.448Z,16.44
2023-03-22T09:47:47.009Z,16.52
2023-03-22T09:50:27.651Z,16.65
2023-03-22T09:53:00.687Z,16.44
2023-03-22T09:55:38.720Z,16.53
2023-03-22T09:58:49.117Z,16.52
2023-03-22T10:01:38.555Z,16.58
2023-03-22T10:04:26.480Z,16.31
2023-03-22T10:07:21.725Z,16.51
2023-03-22T10:10:01.708Z,16.68
2023-03-22T10:12:35.274Z,16.56
2023-03-22T10:15:14.887Z,16.40
2023-03-22T10:17:51.793Z,16.56
2023-03-22T10:20:44.256Z,16.58
2023-03-22T10:23:39.410Z,16.26
2023-03-22T10:26:29.677Z,16.42
2023-03-22T10:29:12.390Z,16.42
2023-03-22T10:34:29.659Z,16.39
2023-03-22T10:37:07.245Z,16.49
2023-03-22T10:39:46.498Z,16.55
2023-03-22T10:42:22.079Z,16.05
2023-03-22T10:44:53.538Z,16.55
2023-03-22T10:47:34.849Z,16.75
2023-03-22T10:50:11.081Z,16.80
2023-03-22T10:52:51.876Z,16.50
2023-03-22T10:55:21.820Z,16.56
2023-03-22T10:58:11.659Z,16.73
2023-03-22T11:00:57.886Z,16.64
2023-03-22T11:03:29.022Z,16.82
2023-03-22T11:06:00.842Z,16.82
2023-03-22T11:08:58.777Z,16.56
2023-03-22T11:11:32.057Z,16.80
2023-03-22T11:14:15.938Z,17.08
2023-03-22T11:16:57.941Z,16.91
2023-03-22T11:19:33.682Z,17.18
2023-03-22T11:22:06.591Z,17.40
2023-03-22T11:24:35.785Z,17.22
2023-03-22T11:27:20.958Z,17.14
2023-03-22T11:29:58.450Z,16.64
2023-03-22T11:32:28.791Z,17.08
2023-03-22T11:35:02.723Z,16.93
2023-03-22T11:37:32.276Z,17.27
2023-03-22T11:40:05.386Z,17.27
2023-03-22T11:42:35.975Z,17.67
2023-03-22T11:45:16.097Z,18.11
2023-03-22T11:47:45.344Z,17.98
2023-03-22T11:50:27.637Z,17.99
2023-03-22T11:52:57.538Z,17.69
2023-03-22T11:55:32.111Z,17.86
2023-03-22T11:58:04.608Z,18.32
2023-03-22T12:03:21.008Z,18.25
2023-03-22T12:05:51.950Z,18.45
2023-03-22T12:08:42.963Z,18.33
2023-03-22T12:11:31.128Z,18.50
2023-03-22T12:14:09.507Z,18.65
2023-03-22T12:16:51.518Z,18.76
2023-03-22T12:19:43.951Z,18.76
2023-03-22T12:22:25.940Z,18.77
2023-03-22T12:24:55.148Z,19.02
2023-03-22T12:30:17.139Z,18.57
2023-03-22T12:32:51.569Z,18.86
2023-03-22T12:38:04.104Z,19.13
2023-03-22T12:40:38.998Z,19.17
2023-03-22T12:43:23.999Z,19.17
2023-03-22T12:46:01.710Z,19.22
2023-03-22T12:48:49.143Z,19.01
2023-03-22T12:51:26.936Z,19.24
2023-03-22T12:54:00.839Z,18.90
2023-03-22T12:56:46.789Z,18.58
2023-03-22T12:59:25.068Z,18.98
2023-03-22T13:02:21.235Z,19.18
2023-03-22T13:04:51.298Z,19.23
2023-03-22T13:07:54.718Z,19.61
2023-03-22T13:10:37.835Z,19.98
2023-03-22T13:13:13.807Z,20.17
2023-03-22T13:16:03.989Z,20.48
2023-03-22T13:18:53.796Z,20.48
2023-03-22T13:21:29.697Z,20.27
2023-03-22T13:24:10.650Z,20.32
2023-03-22T13:26:49.834Z,20.68
2023-03-22T13:29:38.257Z,20.65
2023-03-22T13:32:24.807Z,20.14
2023-03-22T13:34:57.982Z,19.84
2023-03-22T13:40:35.673Z,20.30
2023-03-22T13:43:14.731Z,20.20
2023-03-22T13:46:21.894Z,19.71
2023-03-22T13:49:26.733Z,20.11
2023-03-22T13:52:04.759Z,19.92
2023-03-22T13:54:42.946Z,19.72
2023-03-22T13:57:20.698Z,19.41
2023-03-22T14:00:11.294Z,19.37
2023-03-22T14:02:43.967Z,19.77
2023-03-22T14:05:27.592Z,19.01
2023-03-22T14:07:59.674Z,19.38
2023-03-22T14:10:45.452Z,19.11
2023-03-22T14:13:19.963Z,19.44
2023-03-22T14:16:15.447Z,19.84
2023-03-22T14:18:50.290Z,19.66
2023-03-22T14:21:28.897Z,19.33
